Time;durP1;ratioP1;P1;durP2;ratioP2;P2;SDS_P1;SDS_P2;PMS_P1;PMS_P2;Temp;Humidity;BMP_temperature;BMP_pressure;BME280_temperature;BME280_humidity;BME280_pressure;Samples;Min_cycle;Max_cycle;Signal;HPM_P1;HPM_P2
2022/08/29 00:01:35;;;;;;;5.50;4.10;;;16.30;99.90;;;;;;5095906;28;20440;-72
2022/08/29 00:04:02;;;;;;;6.63;4.17;;;16.30;1.00;;;;;;5095368;28;20967;-72
2022/08/29 00:06:29;;;;;;;11.90;4.00;;;16.30;1.00;;;;;;5095306;28;20451;-72
2022/08/29 00:08:56;;;;;;;7.00;4.60;;;16.20;1.00;;;;;;5095772;28;20467;-72
2022/08/29 00:11:23;;;;;;;6.67;3.90;;;16.30;1.00;;;;;;5095550;28;20455;-72
2022/08/29 00:13:50;;;;;;;6.03;3.13;;;16.30;1.00;;;;;;5095536;28;20447;-72
2022/08/29 00:16:18;;;;;;;6.83;4.30;;;16.10;1.00;;;;;;5095507;28;20439;-72
2022/08/29 00:18:45;;;;;;;6.80;4.57;;;16.00;1.00;;;;;;5095412;28;20506;-73
2022/08/29 00:21:12;;;;;;;8.83;3.90;;;16.00;1.00;;;;;;5095316;28;20518;-72
2022/08/29 00:23:39;;;;;;;12.97;3.97;;;16.10;1.00;;;;;;5095295;28;20443;-72
2022/08/29 00:26:06;;;;;;;7.57;3.30;;;16.10;1.00;;;;;;5095250;28;20487;-72
2022/08/29 00:28:33;;;;;;;5.73;3.53;;;15.90;1.00;;;;;;5095304;28;20983;-72
2022/08/29 00:31:00;;;;;;;9.23;4.13;;;15.80;1.00;;;;;;5095208;28;20447;-72
2022/08/29 00:33:29;;;;;;;6.23;4.33;;;15.80;1.00;;;;;;5094950;28;20849;-72
2022/08/29 00:35:56;;;;;;;6.93;5.23;;;15.80;1.00;;;;;;5094795;28;20456;-72
2022/08/29 00:38:23;;;;;;;14.60;4.80;;;15.60;1.00;;;;;;5095016;28;20454;-72
2022/08/29 00:40:53;;;;;;;7.20;4.87;;;15.70;1.00;;;;;;5095431;28;20444;-72
2022/08/29 00:43:24;;;;;;;4.47;3.90;;;15.80;1.00;;;;;;5095669;28;20444;-72
2022/08/29 00:45:55;;;;;;;7.80;4.20;;;15.80;1.00;;;;;;5095474;28;20460;-72
2022/08/29 00:48:23;;;;;;;4.60;4.10;;;15.60;1.00;;;;;;5094984;28;20547;-72
2022/08/29 00:50:53;;;;;;;5.47;3.87;;;15.60;1.00;;;;;;5094636;28;20452;-72
2022/08/29 00:53:38;;;;;;;4.80;4.17;;;15.60;1.00;;;;;;5094700;28;20468;-72
2022/08/29 00:56:08;;;;;;;6.20;3.63;;;15.50;1.00;;;;;;5094887;28;20432;-72
2022/08/29 00:58:38;;;;;;;10.43;3.70;;;15.60;1.60;;;;;;5094374;28;20483;-72
2022/08/29 01:01:05;;;;;;;5.70;3.73;;;15.40;1.00;;;;;;5094666;28;20436;-73
2022/08/29 01:03:33;;;;;;;7.90;4.03;;;15.40;18.90;;;;;;5094546;28;20440;-72
2022/08/29 01:06:04;;;;;;;8.87;3.90;;;15.50;63.00;;;;;;5094059;28;20955;-73
2022/08/29 01:08:31;;;;;;;6.97;4.20;;;15.40;1.00;;;;;;5094422;28;20460;-72
2022/08/29 01:13:46;;;;;;;5.33;3.60;;;15.40;99.90;;;;;;5094510;28;20459;-72
2022/08/29 01:16:14;;;;;;;11.67;3.93;;;15.30;83.10;;;;;;5095411;28;20786;-72
2022/08/29 01:18:44;;;;;;;11.23;3.90;;;15.50;99.90;;;;;;5094047;28;20470;-72
2022/08/29 01:21:19;;;;;;;7.13;3.90;;;15.50;3.60;;;;;;5094167;28;20531;-73
2022/08/29 01:23:54;;;;;;;5.27;4.40;;;15.30;28.50;;;;;;5094259;28;20420;-72
2022/08/29 01:26:23;;;;;;;6.80;4.57;;;15.30;22.90;;;;;;5094103;28;20428;-73
2022/08/29 01:28:52;;;;;;;6.63;3.80;;;15.40;99.90;;;;;;5093800;28;20460;-72
2022/08/29 01:31:21;;;;;;;10.10;4.40;;;15.40;99.90;;;;;;5093691;28;20447;-72
2022/08/29 01:33:52;;;;;;;5.37;4.23;;;15.20;47.40;;;;;;5093881;28;20887;-72
2022/08/29 01:36:21;;;;;;;9.50;4.60;;;15.30;99.90;;;;;;5093880;28;20432;-72
2022/08/29 01:38:48;;;;;;;4.63;3.70;;;15.30;67.40;;;;;;5093668;28;20972;-71
2022/08/29 01:41:17;;;;;;;8.40;4.17;;;15.20;51.50;;;;;;5093912;28;20824;-71
2022/08/29 01:43:47;;;;;;;8.80;4.73;;;15.30;99.90;;;;;;5093707;28;20436;-72
2022/08/29 01:46:18;;;;;;;5.73;4.50;;;15.20;99.90;;;;;;5093642;28;20526;-72
2022/08/29 01:48:46;;;;;;;7.90;3.87;;;15.20;99.90;;;;;;5093714;28;20468;-72
2022/08/29 01:51:14;;;;;;;8.70;4.50;;;15.10;88.20;;;;;;5093559;28;20756;-72
2022/08/29 01:53:41;;;;;;;6.20;4.13;;;15.10;93.70;;;;;;5093336;28;20490;-72
2022/08/29 01:56:14;;;;;;;10.33;4.60;;;15.20;99.90;;;;;;5093163;28;20451;-72
2022/08/29 01:58:42;;;;;;;6.57;5.10;;;15.20;99.90;;;;;;5092949;28;20475;-71
2022/08/29 02:01:11;;;;;;;5.40;3.70;;;15.30;99.90;;;;;;5093449;28;20452;-72
2022/08/29 02:03:38;;;;;;;8.77;4.83;;;15.30;99.90;;;;;;5093320;28;20815;-72
2022/08/29 02:06:08;;;;;;;6.43;4.50;;;15.30;99.90;;;;;;5093238;28;20447;-71
2022/08/29 02:08:35;;;;;;;5.87;4.10;;;15.30;99.90;;;;;;5092947;28;21047;-71
2022/08/29 02:11:02;;;;;;;6.90;4.43;;;15.20;99.90;;;;;;5093457;28;20882;-72
2022/08/29 02:13:28;;;;;;;6.10;4.40;;;15.10;99.90;;;;;;5093720;28;20479;-72
2022/08/29 02:15:55;;;;;;;9.73;4.23;;;15.10;99.90;;;;;;5093266;28;20448;-72
2022/08/29 02:18:23;;;;;;;6.37;4.20;;;14.80;99.90;;;;;;5092530;28;20533;-71
2022/08/29 02:20:50;;;;;;;5.87;4.17;;;15.00;99.90;;;;;;5093063;28;20443;-73
2022/08/29 02:23:17;;;;;;;7.90;4.30;;;15.00;99.90;;;;;;5093131;28;20548;-72
2022/08/29 02:25:46;;;;;;;7.33;4.80;;;14.90;99.90;;;;;;5092951;28;20443;-72
2022/08/29 02:28:16;;;;;;;8.47;4.73;;;14.90;99.90;;;;;;5092839;28;20447;-72
2022/08/29 02:30:44;;;;;;;9.63;4.20;;;14.90;99.90;;;;;;5092860;28;20494;-72
2022/08/29 02:33:12;;;;;;;5.57;3.90;;;14.80;99.90;;;;;;5092805;28;20476;-72
2022/08/29 02:35:40;;;;;;;5.47;3.67;;;14.80;99.90;;;;;;5092967;28;20448;-72
2022/08/29 02:38:07;;;;;;;10.20;4.70;;;14.80;99.90;;;;;;5092391;28;20948;-72
2022/08/29 02:40:34;;;;;;;10.93;4.23;;;14.80;99.90;;;;;;5092410;28;20444;-72
2022/08/29 02:43:01;;;;;;;9.83;4.17;;;14.70;99.90;;;;;;5092494;28;20447;-72
2022/08/29 02:45:29;;;;;;;5.57;5.07;;;14.80;99.90;;;;;;5092713;28;20444;-72
2022/08/29 02:47:56;;;;;;;5.57;3.70;;;14.90;99.90;;;;;;5092887;28;20457;-72
2022/08/29 02:50:24;;;;;;;8.43;3.87;;;14.80;99.90;;;;;;5092664;28;20471;-72
2022/08/29 02:52:53;;;;;;;8.63;4.17;;;14.70;99.90;;;;;;5092437;28;20483;-72
2022/08/29 02:55:20;;;;;;;4.90;4.13;;;14.80;99.90;;;;;;5092662;28;20459;-72
2022/08/29 02:57:47;;;;;;;8.20;4.83;;;14.80;99.90;;;;;;5092623;28;20448;-72
2022/08/29 03:00:18;;;;;;;11.10;4.83;;;14.80;99.90;;;;;;5092448;28;20486;-72
2022/08/29 03:02:46;;;;;;;9.57;4.67;;;14.80;99.90;;;;;;5092674;28;20485;-72
2022/08/29 03:05:13;;;;;;;7.63;4.67;;;14.80;99.90;;;;;;5092599;28;20864;-72
2022/08/29 03:07:40;;;;;;;6.10;4.00;;;14.80;99.90;;;;;;5092146;28;20448;-72
2022/08/29 03:10:08;;;;;;;8.30;4.40;;;14.80;99.90;;;;;;5092542;28;20540;-73
2022/08/29 03:12:36;;;;;;;11.67;4.60;;;14.80;99.90;;;;;;5092118;28;21018;-72
2022/08/29 03:15:03;;;;;;;6.60;4.50;;;14.70;99.90;;;;;;5092573;28;20448;-72
2022/08/29 03:17:30;;;;;;;7.50;4.23;;;14.70;99.90;;;;;;5092531;28;20448;-72
2022/08/29 03:19:57;;;;;;;10.23;5.47;;;14.70;99.90;;;;;;5092179;28;20468;-73
2022/08/29 03:22:24;;;;;;;11.03;4.90;;;14.80;99.90;;;;;;5092545;28;20539;-73
2022/08/29 03:24:52;;;;;;;9.27;4.30;;;14.70;99.90;;;;;;5092594;28;20444;-72
2022/08/29 03:27:21;;;;;;;6.50;4.67;;;14.80;99.90;;;;;;5092464;28;20446;-72
2022/08/29 03:29:48;;;;;;;7.43;5.77;;;14.80;99.90;;;;;;5092056;28;20503;-72
2022/08/29 03:32:15;;;;;;;10.23;4.50;;;14.70;99.90;;;;;;5095906;28;20447;-72
2022/08/29 03:34:42;;;;;;;6.50;4.10;;;14.70;99.90;;;;;;5095837;28;20451;-73
2022/08/29 03:37:08;;;;;;;7.20;5.20;;;14.60;99.90;;;;;;5095835;28;21001;-72
2022/08/29 03:39:36;;;;;;;7.23;3.73;;;14.60;99.90;;;;;;5095639;28;20463;-73
2022/08/29 03:42:03;;;;;;;6.80;4.97;;;14.60;99.90;;;;;;5096013;28;20483;-72
2022/08/29 03:44:33;;;;;;;9.93;4.50;;;14.70;99.90;;;;;;5095975;28;20455;-72
2022/08/29 03:47:00;;;;;;;7.30;4.47;;;14.60;99.90;;;;;;5096090;28;20516;-72
2022/08/29 03:49:27;;;;;;;6.63;4.07;;;14.60;99.90;;;;;;5095940;28;20473;-72
2022/08/29 03:51:54;;;;;;;12.47;4.40;;;14.60;99.90;;;;;;5095927;28;20444;-71
2022/08/29 03:54:21;;;;;;;8.23;4.43;;;14.60;99.90;;;;;;5095769;28;20471;-72
2022/08/29 03:56:48;;;;;;;4.87;4.37;;;14.50;99.90;;;;;;5096161;28;20444;-71
2022/08/29 03:59:16;;;;;;;14.37;6.20;;;14.50;99.90;;;;;;5118131;22;20494;-71
2022/08/29 04:01:46;;;;;;;9.30;5.20;;;14.50;99.90;;;;;;5096094;28;20439;-71
2022/08/29 04:05:05;;;;;;;12.10;4.87;;;14.50;99.90;;;;;;5096117;28;20964;-71
2022/08/29 04:07:00;;;;;;;8.83;4.83;;;14.50;99.90;;;;;;5095834;28;20944;-71
2022/08/29 04:09:27;;;;;;;5.93;4.93;;;14.40;99.90;;;;;;5095906;28;20463;-72
2022/08/29 04:11:54;;;;;;;5.57;4.60;;;14.40;99.90;;;;;;5095917;28;20443;-72
2022/08/29 04:14:21;;;;;;;7.80;5.17;;;14.30;99.90;;;;;;5095802;28;20850;-72
2022/08/29 04:16:50;;;;;;;9.10;4.87;;;14.30;99.90;;;;;;5095662;28;20943;-72
2022/08/29 04:19:16;;;;;;;9.07;4.50;;;14.40;99.90;;;;;;5096055;28;20460;-72
2022/08/29 04:21:44;;;;;;;10.53;5.70;;;14.40;99.90;;;;;;5095871;28;20444;-72
2022/08/29 04:24:10;;;;;;;8.33;4.97;;;14.30;99.90;;;;;;5095905;28;20444;-72
2022/08/29 04:26:37;;;;;;;11.37;5.37;;;14.40;99.90;;;;;;5095597;28;20447;-72
2022/08/29 04:29:05;;;;;;;9.50;5.50;;;14.40;99.90;;;;;;5095721;28;20467;-72
2022/08/29 04:31:32;;;;;;;9.17;6.30;;;14.40;99.90;;;;;;5095524;28;20773;-72
2022/08/29 04:34:00;;;;;;;6.57;4.80;;;14.30;99.90;;;;;;5095804;28;20457;-72
2022/08/29 04:36:26;;;;;;;10.00;5.87;;;14.30;99.90;;;;;;5095408;28;20505;-71
2022/08/29 04:38:54;;;;;;;9.00;4.50;;;14.30;99.90;;;;;;5095083;28;20476;-72
2022/08/29 04:41:21;;;;;;;8.10;5.63;;;14.30;99.90;;;;;;5095170;28;20447;-71
2022/08/29 04:43:48;;;;;;;16.30;9.30;;;14.40;99.90;;;;;;5095001;28;20444;-72
2022/08/29 04:46:16;;;;;;;11.73;5.60;;;14.40;99.90;;;;;;5095262;28;20448;-72
2022/08/29 04:48:43;;;;;;;10.50;4.97;;;14.60;99.90;;;;;;5094806;28;20448;-72
2022/08/29 04:51:11;;;;;;;8.10;5.13;;;14.60;99.90;;;;;;5095287;28;20830;-71
2022/08/29 04:53:37;;;;;;;9.97;5.27;;;14.60;99.90;;;;;;5094994;28;20479;-72
2022/08/29 04:56:07;;;;;;;10.33;5.13;;;14.60;99.90;;;;;;5094943;28;20814;-71
2022/08/29 04:58:35;;;;;;;12.47;4.83;;;14.60;99.90;;;;;;5094993;28;20815;-72
2022/08/29 05:01:02;;;;;;;8.40;4.70;;;14.70;99.90;;;;;;5094998;28;20522;-73
2022/08/29 05:03:30;;;;;;;8.00;5.33;;;14.70;99.90;;;;;;5094845;28;20803;-72
2022/08/29 05:06:00;;;;;;;13.43;5.00;;;14.70;99.90;;;;;;5094694;28;20828;-71
2022/08/29 05:08:29;;;;;;;11.73;5.83;;;14.80;99.90;;;;;;5094817;28;20428;-71
2022/08/29 05:10:56;;;;;;;8.60;5.47;;;14.70;99.90;;;;;;5094576;28;20448;-72
2022/08/29 05:13:23;;;;;;;8.83;5.57;;;14.70;99.90;;;;;;5094558;28;20529;-71
2022/08/29 05:15:50;;;;;;;8.70;5.47;;;14.80;99.90;;;;;;5094458;28;20446;-71
2022/08/29 05:18:17;;;;;;;9.30;5.80;;;14.80;99.90;;;;;;5094546;28;20456;-71
2022/08/29 05:20:48;;;;;;;12.83;5.87;;;14.80;99.90;;;;;;5094352;28;20956;-71
2022/08/29 05:23:16;;;;;;;8.60;5.90;;;14.80;99.90;;;;;;5094420;28;20486;-71
2022/08/29 05:25:45;;;;;;;11.10;7.03;;;14.80;99.90;;;;;;5094324;28;20527;-73
2022/08/29 05:28:12;;;;;;;8.77;5.83;;;14.90;99.90;;;;;;5094165;28;20510;-71
2022/08/29 05:30:40;;;;;;;8.30;6.40;;;14.90;99.90;;;;;;5094181;28;20503;-72
2022/08/29 05:33:07;;;;;;;13.33;6.77;;;14.90;99.90;;;;;;5094076;28;20483;-71
2022/08/29 05:35:34;;;;;;;20.53;7.70;;;15.00;99.90;;;;;;5094014;28;20458;-72
2022/08/29 05:38:02;;;;;;;12.03;7.43;;;14.90;99.90;;;;;;5094148;28;20439;-71
2022/08/29 05:40:29;;;;;;;12.40;7.60;;;14.90;99.90;;;;;;5094018;28;20470;-72
2022/08/29 05:42:57;;;;;;;11.90;8.80;;;15.00;99.90;;;;;;5094063;28;20501;-72
2022/08/29 05:45:24;;;;;;;15.37;7.30;;;15.00;99.90;;;;;;5093874;28;20443;-72
2022/08/29 05:47:50;;;;;;;13.37;6.93;;;14.90;99.90;;;;;;5093942;28;20419;-72
2022/08/29 05:50:17;;;;;;;10.90;6.53;;;14.90;99.90;;;;;;5093910;28;20495;-71
2022/08/29 05:52:44;;;;;;;19.97;7.53;;;14.90;99.90;;;;;;5093274;28;20470;-72
2022/08/29 05:55:11;;;;;;;16.83;7.47;;;14.90;99.90;;;;;;5093630;28;20490;-72
2022/08/29 05:57:38;;;;;;;19.30;6.67;;;15.10;99.90;;;;;;5093700;28;20444;-72
2022/08/29 06:00:08;;;;;;;12.07;6.90;;;15.20;99.90;;;;;;5093561;28;20482;-72
2022/08/29 06:02:35;;;;;;;11.53;6.57;;;15.20;99.90;;;;;;5094213;28;20490;-72
2022/08/29 06:05:03;;;;;;;12.83;6.00;;;15.20;99.90;;;;;;5093700;28;20506;-72
2022/08/29 06:07:31;;;;;;;10.67;5.97;;;15.40;99.90;;;;;;5093713;28;20843;-72
2022/08/29 06:09:58;;;;;;;12.07;6.80;;;15.40;99.90;;;;;;5093888;28;20514;-72
2022/08/29 06:12:25;;;;;;;7.27;5.83;;;15.50;99.90;;;;;;5094575;28;20861;-72
2022/08/29 06:14:52;;;;;;;12.50;6.80;;;15.50;99.90;;;;;;5093918;28;20482;-72
2022/08/29 06:17:20;;;;;;;11.03;5.90;;;15.50;99.90;;;;;;5093751;28;20452;-72
2022/08/29 06:19:50;;;;;;;8.63;5.80;;;15.60;99.90;;;;;;5094122;28;20463;-71
2022/08/29 06:22:18;;;;;;;8.73;5.90;;;15.70;99.90;;;;;;5093957;28;20837;-71
2022/08/29 06:24:46;;;;;;;9.40;5.67;;;15.80;99.90;;;;;;5094709;28;20497;-71
2022/08/29 06:27:13;;;;;;;9.70;5.47;;;15.80;99.90;;;;;;5093016;28;21024;-72
2022/08/29 06:29:39;;;;;;;8.53;6.20;;;15.80;99.90;;;;;;5093246;28;20986;-72
2022/08/29 06:32:06;;;;;;;13.63;6.93;;;15.80;99.90;;;;;;5094007;28;20462;-71
2022/08/29 06:34:34;;;;;;;12.33;6.60;;;16.00;99.90;;;;;;5094409;28;20483;-72
2022/08/29 06:37:01;;;;;;;9.87;6.43;;;15.90;99.90;;;;;;5093564;28;20533;-72
2022/08/29 06:39:28;;;;;;;13.20;5.93;;;15.90;99.90;;;;;;5093273;28;20980;-72
2022/08/29 06:41:55;;;;;;;24.40;7.23;;;16.00;99.90;;;;;;5094813;28;20989;-72
2022/08/29 06:44:22;;;;;;;11.23;6.40;;;16.10;99.90;;;;;;5094050;28;20452;-72
2022/08/29 06:46:50;;;;;;;7.07;5.60;;;16.20;99.90;;;;;;5093400;28;20448;-72
2022/08/29 06:49:19;;;;;;;13.37;6.63;;;16.20;99.90;;;;;;5092911;28;20526;-71
2022/08/29 06:51:51;;;;;;;12.07;6.97;;;16.30;99.90;;;;;;5093222;28;20455;-72
2022/08/29 06:54:19;;;;;;;9.33;6.23;;;16.20;99.90;;;;;;5092755;28;20997;-71
2022/08/29 06:56:46;;;;;;;13.13;7.10;;;16.30;99.90;;;;;;5093439;28;20444;-71
2022/08/29 06:59:13;;;;;;;10.63;7.03;;;16.10;99.90;;;;;;5092881;28;20476;-71
2022/08/29 07:01:41;;;;;;;13.43;7.73;;;16.10;99.90;;;;;;5093305;28;20439;-72
2022/08/29 07:04:08;;;;;;;9.23;6.37;;;16.10;99.90;;;;;;5094292;28;20476;-72
2022/08/29 07:06:36;;;;;;;15.87;6.50;;;16.30;99.90;;;;;;5098169;28;20858;-72
2022/08/29 07:09:05;;;;;;;18.87;7.60;;;16.30;99.90;;;;;;5097117;28;20466;-72
2022/08/29 07:11:33;;;;;;;14.00;6.83;;;16.40;99.90;;;;;;5097023;28;20448;-71
2022/08/29 07:14:03;;;;;;;22.00;7.67;;;16.50;99.90;;;;;;5096800;28;20532;-71
2022/08/29 07:16:31;;;;;;;17.40;8.63;;;16.60;99.90;;;;;;5096794;28;20473;-72
2022/08/29 07:18:58;;;;;;;16.40;8.37;;;16.60;99.90;;;;;;5096805;28;20459;-72
2022/08/29 07:21:26;;;;;;;10.70;8.60;;;16.60;99.90;;;;;;5096688;28;20440;-72
2022/08/29 07:23:54;;;;;;;9.90;6.30;;;16.60;99.90;;;;;;5096310;28;20940;-72
2022/08/29 07:26:27;;;;;;;16.67;6.70;;;16.70;99.90;;;;;;5096711;28;20444;-72
2022/08/29 07:29:00;;;;;;;13.33;7.13;;;16.60;99.90;;;;;;5096763;28;20529;-72
2022/08/29 07:31:27;;;;;;;10.80;6.37;;;16.50;99.90;;;;;;5096557;28;20826;-72
2022/08/29 07:33:54;;;;;;;10.77;6.70;;;16.70;99.90;;;;;;5095933;28;20479;-72
2022/08/29 07:36:21;;;;;;;11.80;6.20;;;16.60;99.90;;;;;;5096375;28;20975;-72
2022/08/29 07:38:48;;;;;;;13.33;7.10;;;16.50;99.90;;;;;;5096375;28;20468;-72
2022/08/29 07:41:15;;;;;;;12.63;6.20;;;16.60;99.90;;;;;;5096455;28;20443;-72
2022/08/29 07:43:43;;;;;;;11.53;6.20;;;16.60;99.90;;;;;;5096251;28;20458;-72
2022/08/29 07:46:12;;;;;;;13.40;7.00;;;16.60;99.90;;;;;;5096629;28;20450;-72
2022/08/29 07:48:40;;;;;;;12.07;6.53;;;16.70;99.90;;;;;;5096390;28;20451;-72
2022/08/29 07:51:07;;;;;;;13.60;6.70;;;16.60;99.90;;;;;;5096095;28;20448;-72
2022/08/29 07:53:34;;;;;;;9.97;6.30;;;16.50;99.90;;;;;;5096257;28;20451;-73
2022/08/29 07:56:06;;;;;;;11.37;6.83;;;16.50;99.90;;;;;;5096477;28;20457;-72
2022/08/29 07:58:32;;;;;;;10.73;7.33;;;16.50;99.90;;;;;;5096011;28;20518;-71
2022/08/29 08:01:02;;;;;;;13.23;6.67;;;16.60;99.90;;;;;;5096042;28;20862;-72
2022/08/29 08:03:29;;;;;;;15.60;7.23;;;16.60;99.90;;;;;;5095825;28;20448;-72
2022/08/29 08:05:56;;;;;;;11.97;7.40;;;16.60;99.90;;;;;;5095845;28;20450;-72
2022/08/29 08:08:22;;;;;;;15.33;6.93;;;16.70;99.90;;;;;;5095811;28;20451;-73
2022/08/29 08:10:49;;;;;;;10.73;7.07;;;16.70;99.90;;;;;;5095842;28;20470;-73
2022/08/29 08:13:17;;;;;;;11.53;5.73;;;16.90;99.90;;;;;;5095456;28;21002;-72
2022/08/29 08:15:43;;;;;;;21.57;7.10;;;17.00;99.90;;;;;;5095520;28;20486;-72
2022/08/29 08:18:11;;;;;;;8.00;6.10;;;17.10;99.90;;;;;;5095100;28;20472;-72
2022/08/29 08:20:38;;;;;;;19.03;6.70;;;17.00;99.90;;;;;;5095675;28;20513;-72
2022/08/29 08:23:05;;;;;;;8.30;5.57;;;17.00;99.90;;;;;;5096000;28;20443;-72
2022/08/29 08:25:32;;;;;;;8.83;5.77;;;17.10;99.90;;;;;;5095255;28;20794;-72
2022/08/29 08:27:58;;;;;;;10.87;6.43;;;17.10;99.90;;;;;;5095735;28;20818;-73
2022/08/29 08:30:25;;;;;;;16.33;6.63;;;17.10;99.90;;;;;;5095315;28;20464;-72
2022/08/29 08:32:52;;;;;;;13.97;8.80;;;17.10;99.90;;;;;;5095199;28;20444;-73
2022/08/29 08:35:20;;;;;;;11.47;6.93;;;17.10;99.90;;;;;;5095311;28;20515;-73
2022/08/29 08:37:48;;;;;;;12.27;6.60;;;17.20;99.90;;;;;;5095615;28;20447;-71
2022/08/29 08:40:21;;;;;;;16.47;10.57;;;17.20;99.90;;;;;;5095482;28;20468;-73
2022/08/29 08:42:49;;;;;;;12.53;6.70;;;17.30;99.90;;;;;;5095227;28;20920;-72
2022/08/29 08:45:17;;;;;;;7.60;6.27;;;17.30;99.90;;;;;;5095470;28;20444;-72
2022/08/29 08:47:49;;;;;;;9.80;6.20;;;17.40;99.90;;;;;;5095022;28;20439;-73
2022/08/29 08:50:24;;;;;;;9.43;6.83;;;17.20;99.90;;;;;;5095076;28;20590;-72
2022/08/29 08:52:57;;;;;;;11.30;7.57;;;17.30;99.90;;;;;;5094971;28;20466;-72
2022/08/29 08:55:36;;;;;;;13.20;6.53;;;17.40;99.90;;;;;;5094543;28;20459;-72
2022/08/29 08:58:11;;;;;;;10.70;7.00;;;17.40;99.90;;;;;;5094638;28;20432;-72
2022/08/29 09:00:44;;;;;;;11.53;6.33;;;17.30;99.90;;;;;;5095067;28;20479;-72
2022/08/29 09:03:26;;;;;;;9.27;6.37;;;17.30;99.90;;;;;;5094740;28;20424;-73
2022/08/29 09:06:07;;;;;;;10.20;6.50;;;17.30;99.90;;;;;;5094824;28;20429;-72
2022/08/29 09:08:46;;;;;;;16.50;7.60;;;17.70;99.90;;;;;;5094544;28;20918;-72
2022/08/29 09:11:18;;;;;;;11.13;6.77;;;17.60;99.90;;;;;;5094719;28;20428;-73
2022/08/29 09:13:55;;;;;;;12.83;7.33;;;17.60;99.90;;;;;;5094813;28;20424;-72
2022/08/29 09:16:26;;;;;;;10.00;6.60;;;17.70;99.90;;;;;;5094875;28;20442;-73
2022/08/29 09:18:55;;;;;;;15.37;6.17;;;17.80;99.90;;;;;;5094333;28;20983;-74
2022/08/29 09:21:23;;;;;;;11.43;6.33;;;17.80;99.90;;;;;;5094535;28;20444;-71
2022/08/29 09:23:54;;;;;;;11.30;5.83;;;17.90;99.90;;;;;;5094453;28;20986;-72
2022/08/29 09:26:23;;;;;;;13.00;6.30;;;17.90;99.90;;;;;;5094556;28;20426;-73
2022/08/29 09:28:50;;;;;;;11.97;6.90;;;18.00;99.90;;;;;;5094191;28;20460;-73
2022/08/29 09:31:23;;;;;;;10.50;5.50;;;17.90;99.90;;;;;;5094233;28;20517;-72
2022/08/29 09:33:53;;;;;;;8.60;6.00;;;18.10;99.90;;;;;;5095027;28;20771;-73
2022/08/29 09:36:40;;;;;;;13.40;6.60;;;18.30;99.90;;;;;;5094014;28;20476;-73
2022/08/29 09:39:17;;;;;;;6.57;5.87;;;18.50;99.90;;;;;;5094114;28;20471;-73
2022/08/29 09:41:47;;;;;;;10.00;6.37;;;18.40;24.80;;;;;;5093837;28;20428;-72
2022/08/29 09:44:18;;;;;;;10.70;6.73;;;18.60;99.90;;;;;;5093889;28;20454;-74
2022/08/29 09:46:45;;;;;;;9.00;6.63;;;18.60;99.90;;;;;;5094136;28;20432;-72
2022/08/29 09:49:15;;;;;;;6.30;5.70;;;18.70;99.90;;;;;;5093361;28;20471;-73
2022/08/29 09:51:45;;;;;;;6.70;6.10;;;18.70;1.00;;;;;;5093873;28;20447;-72
2022/08/29 09:54:17;;;;;;;7.13;5.53;;;18.90;84.00;;;;;;5093481;28;20436;-72
2022/08/29 09:56:51;;;;;;;7.60;5.83;;;18.80;1.00;;;;;;5094143;28;20444;-72
2022/08/29 09:59:24;;;;;;;7.67;6.20;;;18.80;29.90;;;;;;5093439;28;20513;-72
2022/08/29 10:02:15;;;;;;;11.20;5.60;;;18.90;99.90;;;;;;5093584;28;20461;-72
2022/08/29 10:04:44;;;;;;;8.33;5.90;;;18.90;22.20;;;;;;5093215;28;20440;-71
2022/08/29 10:07:17;;;;;;;10.13;6.50;;;18.90;99.90;;;;;;5093419;28;20522;-72
2022/08/29 10:09:54;;;;;;;7.83;6.70;;;18.80;45.90;;;;;;5093629;28;20464;-73
2022/08/29 10:12:28;;;;;;;10.83;7.20;;;18.70;99.90;;;;;;5093741;28;20486;-73
2022/08/29 10:15:00;;;;;;;11.07;6.30;;;18.70;99.90;;;;;;5093684;28;20468;-73
2022/08/29 10:20:19;;;;;;;10.80;6.60;;;18.60;93.10;;;;;;5093474;28;20446;-72
2022/08/29 10:22:56;;;;;;;10.77;6.50;;;18.70;99.90;;;;;;5093855;28;20884;-73
2022/08/29 10:25:32;;;;;;;8.93;6.33;;;18.70;57.70;;;;;;5093712;28;20427;-73
2022/08/29 10:28:06;;;;;;;11.63;6.53;;;18.80;99.90;;;;;;5093505;28;20424;-72
2022/08/29 10:30:41;;;;;;;11.13;6.97;;;18.70;33.90;;;;;;5093063;28;20478;-72
2022/08/29 10:33:21;;;;;;;9.10;5.60;;;18.80;82.80;;;;;;5093233;28;20896;-72
2022/08/29 10:35:56;;;;;;;8.37;6.90;;;19.00;99.90;;;;;;5093044;28;20475;-72
2022/08/29 10:38:40;;;;;;;7.67;6.47;;;19.10;99.90;;;;;;5093300;28;20466;-73
2022/08/29 10:41:15;;;;;;;9.57;8.10;;;19.10;89.30;;;;;;5092760;28;20432;-72
2022/08/29 10:43:48;;;;;;;8.90;7.37;;;19.20;93.90;;;;;;5093292;28;20424;-72
2022/08/29 10:46:32;;;;;;;9.00;6.30;;;19.30;54.00;;;;;;5093371;28;20431;-74
2022/08/29 10:49:07;;;;;;;7.73;6.40;;;19.20;1.00;;;;;;5092965;28;20468;-73
2022/08/29 10:51:43;;;;;;;9.13;6.20;;;19.30;2.50;;;;;;5092740;28;20438;-72
2022/08/29 10:54:19;;;;;;;6.70;5.87;;;19.50;87.10;;;;;;5092813;28;20427;-72
2022/08/29 10:56:48;;;;;;;10.23;5.80;;;19.50;62.60;;;;;;5093207;28;20468;-73
2022/08/29 10:59:22;;;;;;;7.97;5.97;;;19.40;1.00;;;;;;5092824;28;20487;-73
2022/08/29 11:01:55;;;;;;;7.53;6.80;;;19.50;13.10;;;;;;5092894;28;20436;-72
2022/08/29 11:04:26;;;;;;;7.83;6.07;;;19.60;1.80;;;;;;5093024;28;20432;-72
2022/08/29 11:07:01;;;;;;;7.50;6.17;;;19.70;1.00;;;;;;5093300;28;20423;-73
2022/08/29 11:09:33;;;;;;;8.70;6.17;;;19.60;1.00;;;;;;5092871;28;20467;-72
2022/08/29 11:12:06;;;;;;;8.13;5.73;;;19.70;7.70;;;;;;5092795;28;20431;-72
2022/08/29 11:14:39;;;;;;;10.53;6.13;;;19.80;1.00;;;;;;5092485;28;20428;-72
2022/08/29 11:17:08;;;;;;;8.50;6.10;;;19.80;1.00;;;;;;5092526;28;20420;-72
2022/08/29 11:19:48;;;;;;;12.70;6.47;;;19.90;1.00;;;;;;5092868;28;20471;-73
2022/08/29 11:22:21;;;;;;;7.50;5.90;;;19.90;1.00;;;;;;5092797;28;20848;-77
2022/08/29 11:24:59;;;;;;;6.30;5.50;;;19.90;1.00;;;;;;5092961;28;20432;-76
2022/08/29 11:27:34;;;;;;;8.20;6.00;;;19.70;1.00;;;;;;5093036;28;20424;-73
2022/08/29 11:30:05;;;;;;;12.00;6.57;;;19.80;1.00;;;;;;5092238;28;20475;-73
2022/08/29 11:32:40;;;;;;;10.77;6.80;;;19.80;1.00;;;;;;5092646;28;20432;-72
2022/08/29 11:35:16;;;;;;;7.87;6.10;;;19.70;1.00;;;;;;5092515;28;20467;-72
2022/08/29 11:38:04;;;;;;;7.40;6.53;;;19.70;1.00;;;;;;5092870;28;20501;-72
2022/08/29 11:40:55;;;;;;;15.20;10.80;;;19.70;1.00;;;;;;5092638;28;20838;-72
2022/08/29 11:43:25;;;;;;;12.27;8.30;;;19.60;1.00;;;;;;5092595;28;20432;-72
2022/08/29 11:45:58;;;;;;;14.50;7.53;;;19.50;1.00;;;;;;5092510;28;20446;-73
2022/08/29 11:48:34;;;;;;;9.27;6.57;;;19.50;50.70;;;;;;5092512;28;20857;-72
2022/08/29 11:51:29;;;;;;;8.07;6.40;;;19.50;99.90;;;;;;5092656;28;20514;-73
2022/08/29 11:53:56;;;;;;;12.27;7.57;;;19.60;5.50;;;;;;5098511;28;20424;-73
2022/08/29 11:56:27;;;;;;;8.50;6.83;;;19.70;61.00;;;;;;5095997;28;20483;-74
2022/08/29 11:58:55;;;;;;;9.23;7.17;;;19.80;1.00;;;;;;5095712;28;20475;-72
2022/08/29 12:01:59;;;;;;;7.70;6.60;;;20.00;1.00;;;;;;5095865;28;20452;-72
2022/08/29 12:04:52;;;;;;;9.23;5.93;;;20.20;1.00;;;;;;5095976;28;20939;-72
2022/08/29 12:07:21;;;;;;;8.07;6.67;;;20.40;1.00;;;;;;5095438;28;20459;-72
2022/08/29 12:09:50;;;;;;;7.90;5.53;;;20.60;1.00;;;;;;5095551;28;20468;-72
2022/08/29 12:12:44;;;;;;;10.50;5.73;;;20.80;1.00;;;;;;5095890;28;20515;-72
2022/08/29 12:15:44;;;;;;;10.10;6.27;;;21.00;1.00;;;;;;5095715;28;20428;-73
2022/08/29 12:18:40;;;;;;;7.80;5.73;;;21.10;1.00;;;;;;5095370;28;20494;-72
2022/08/29 12:21:32;;;;;;;5.93;5.43;;;21.10;1.00;;;;;;5095380;28;20900;-72
2022/08/29 12:23:59;;;;;;;7.63;5.83;;;21.20;99.90;;;;;;5076250;28;20459;-73
2022/08/29 12:26:42;;;;;;;7.40;5.53;;;20.90;1.00;;;;;;5095958;28;20836;-73
2022/08/29 12:29:18;;;;;;;11.17;5.43;;;20.90;1.00;;;;;;5095366;28;20584;-73
2022/08/29 12:32:18;;;;;;;7.60;5.67;;;20.90;1.00;;;;;;5095517;28;20428;-74
2022/08/29 12:35:18;;;;;;;8.80;5.50;;;20.90;99.90;;;;;;5095069;28;20824;-72
2022/08/29 12:38:03;;;;;;;5.20;4.70;;;20.90;99.90;;;;;;5095078;28;20511;-73
2022/08/29 12:40:55;;;;;;;7.60;5.17;;;20.80;99.90;;;;;;5094926;28;20463;-72
2022/08/29 12:43:34;;;;;;;6.93;6.20;;;20.80;1.00;;;;;;5094787;28;20425;-72
2022/08/29 12:46:08;;;;;;;7.70;6.13;;;20.70;1.00;;;;;;5094878;28;20424;-73
2022/08/29 12:48:44;;;;;;;7.83;6.00;;;20.70;1.00;;;;;;5095105;28;20463;-72
2022/08/29 12:51:31;;;;;;;6.40;5.37;;;20.80;1.00;;;;;;5094818;28;20775;-72
2022/08/29 12:53:58;;;;;;;6.13;5.17;;;20.90;99.90;;;;;;5094796;28;20427;-72
2022/08/29 12:56:25;;;;;;;7.87;5.93;;;20.90;24.80;;;;;;5094628;28;20487;-73
2022/08/29 12:58:56;;;;;;;8.67;6.53;;;20.80;99.90;;;;;;5094698;28;20553;-73
2022/08/29 13:01:30;;;;;;;5.80;4.90;;;20.80;1.00;;;;;;5095033;28;20428;-73
2022/08/29 13:04:02;;;;;;;5.97;5.37;;;20.90;99.90;;;;;;5094566;28;20783;-72
2022/08/29 13:06:30;;;;;;;7.07;5.23;;;20.90;99.90;;;;;;5094942;28;20943;-73
2022/08/29 13:08:57;;;;;;;7.63;5.90;;;20.80;1.00;;;;;;5095379;28;20496;-72